Marola — IBFL — position and weather

sailwx.info

Track history (hours):
 
Tides and Currents Weather Stations Pressure Air Temp Water Temp Dewpoint Dewpoint Depression Visibility Wind Speed Wind Dir Waves Ship Positions

Marola

Last reported at 2016-Jan-31 20:32 UTC. Time now 2016-Feb-09 13:50 UTC.
Position N 10°55' W 061°16'.
Warning: this ship's position is 8 days out of date.

Length 180 m; draft 9 m.

Type: Ship. MMSI: 247094900.

Date/timePositionNaut miles runAvg speedWind from/ knotsBaromVisibWave heightAir tempDewpointWater temp
2016-Jan-31 20:32N 10°55' W 061°16'1413.5
2016-Jan-31 19:31N 10°52' W 061°29'1414.7
2016-Jan-31 18:34N 10°50' W 061°44'1313.2
2016-Jan-31 17:34N 10°38' W 061°49'1413.6
2016-Jan-31 16:34N 10°26' W 061°42'1212.0
2016-Jan-31 15:33N 10°23' W 061°30'1 0.5
2016-Jan-31 14:29N 10°23' W 061°30'0 0.0
2016-Jan-31 13:29N 10°23' W 061°30'0 0.0
2016-Jan-31 12:29N 10°23' W 061°30'0 0.0
2016-Jan-31 11:29N 10°23' W 061°30'0 0.0
2016-Jan-31 10:23N 10°23' W 061°30'0 0.0
2016-Jan-31 09:29N 10°23' W 061°30'0 0.0
2016-Jan-31 08:29N 10°23' W 061°30'0 0.0
2016-Jan-31 07:29N 10°23' W 061°30'0 0.0
2016-Jan-31 06:29N 10°23' W 061°30'0 0.0
2016-Jan-31 05:29N 10°23' W 061°30'0 0.0
2016-Jan-31 04:29N 10°23' W 061°30'0 0.0
2016-Jan-31 03:29N 10°23' W 061°30'0 0.0
2016-Jan-31 02:29N 10°23' W 061°30'0 0.0
2016-Jan-31 01:29N 10°23' W 061°30'0 0.0
2016-Jan-31 00:29N 10°23' W 061°30'0 0.0
2016-Jan-30 23:29N 10°23' W 061°30'0 0.0
2016-Jan-30 22:29N 10°23' W 061°30'0 0.0
2016-Jan-30 21:29N 10°23' W 061°30'0 0.0
2016-Jan-30 20:23N 10°23' W 061°30'0 0.0
2016-Jan-30 19:29N 10°23' W 061°30'0 0.0
2016-Jan-30 18:11N 10°23' W 061°30'0 0.0
2016-Jan-30 16:29N 10°23' W 061°30'0 0.0
2016-Jan-30 15:11N 10°23' W 061°30'0 0.0
2016-Jan-30 14:29N 10°23' W 061°30'0 0.0
2016-Jan-30 13:17N 10°23' W 061°30'0 0.0
2016-Jan-30 12:23N 10°23' W 061°30'0 0.0
2016-Jan-30 11:29N 10°23' W 061°30'1 1.0
2016-Jan-30 10:33N 10°23' W 061°31'2 2.5
2016-Jan-30 09:33N 10°23' W 061°33'0 0.0
2016-Jan-30 08:33N 10°23' W 061°33'0 0.0
2016-Jan-30 07:33N 10°23' W 061°33'0 0.0
2016-Jan-30 06:33N 10°23' W 061°33'0 0.0
2016-Jan-30 05:33N 10°23' W 061°33'0 0.0
2016-Jan-30 04:33N 10°23' W 061°33'0 0.0
2016-Jan-30 03:33N 10°23' W 061°33'0 0.0
2016-Jan-30 02:33N 10°23' W 061°33'0 0.0
2016-Jan-30 01:33N 10°23' W 061°33'0 0.1
2016-Jan-30 00:33N 10°23' W 061°33'7 6.8
2016-Jan-29 23:33N 10°24' W 061°40'1312.5
2016-Jan-29 22:33N 10°32' W 061°50'1414.3
2016-Jan-29 21:33N 10°47' W 061°50'1313.3
2016-Jan-29 20:33N 10°58' W 061°58'  
2016-Jan-24 20:29N 27°37' W 082°46'1213.0
2016-Jan-24 19:33N 27°41' W 082°34'1212.4
2016-Jan-24 18:33N 27°52' W 082°27'3 3.0
2016-Jan-24 17:32N 27°55' W 082°27'0 0.0
2016-Jan-24 16:32N 27°55' W 082°27'0 0.0
2016-Jan-24 15:32N 27°55' W 082°27'0 0.0
2016-Jan-24 14:32N 27°55' W 082°27'0 0.0
2016-Jan-24 13:32N 27°55' W 082°27'0 0.0
2016-Jan-24 12:32N 27°55' W 082°27'0 0.0
2016-Jan-24 11:32N 27°55' W 082°27'0 0.0
2016-Jan-24 10:32N 27°55' W 082°27'0 0.0
2016-Jan-24 09:32N 27°55' W 082°27'0 0.0
2016-Jan-24 08:32N 27°55' W 082°27'0 0.0
2016-Jan-24 07:32N 27°55' W 082°27'0 0.0
2016-Jan-24 06:32N 27°55' W 082°27'0 0.0
2016-Jan-24 05:32N 27°55' W 082°27'0 0.0
2016-Jan-24 04:32N 27°55' W 082°27'0 0.0
2016-Jan-24 03:32N 27°55' W 082°27'0 0.0
2016-Jan-24 02:32N 27°55' W 082°27'0 0.4
2016-Jan-24 01:33N 27°55' W 082°27'1 1.5
2016-Jan-24 00:33N 27°54' W 082°25'0 0.0
2016-Jan-23 23:33N 27°54' W 082°25'0 0.0
2016-Jan-23 22:33N 27°54' W 082°25'0 0.0
2016-Jan-23 21:33N 27°54' W 082°25'0 0.0
2016-Jan-23 20:33N 27°54' W 082°25'0 0.0
2016-Jan-23 19:33N 27°54' W 082°25'0 0.0
2016-Jan-23 18:33N 27°54' W 082°25'0 0.0
2016-Jan-23 17:33N 27°54' W 082°25'0 0.0
2016-Jan-23 16:33N 27°54' W 082°25'0 0.0
2016-Jan-23 15:33N 27°54' W 082°25'0 0.0
2016-Jan-23 14:33N 27°54' W 082°25'0 0.0
2016-Jan-23 13:33N 27°54' W 082°25'0 0.0
2016-Jan-23 12:33N 27°54' W 082°25'0 0.0
2016-Jan-23 11:33N 27°54' W 082°25'0 0.0
2016-Jan-23 10:33N 27°54' W 082°25'0 0.0
2016-Jan-23 09:33N 27°54' W 082°25'0 0.0
2016-Jan-23 08:33N 27°54' W 082°25'0 0.0
2016-Jan-23 07:33N 27°54' W 082°25'0 0.0
2016-Jan-23 06:33N 27°54' W 082°25'0 0.0
2016-Jan-23 05:33N 27°54' W 082°25'0 0.0
2016-Jan-23 04:33N 27°54' W 082°25'0 0.0
2016-Jan-23 03:33N 27°54' W 082°25'0 0.0
2016-Jan-23 02:33N 27°54' W 082°25'0 0.0
2016-Jan-23 01:33N 27°54' W 082°25'0 0.0
2016-Jan-23 00:33N 27°54' W 082°25'0 0.0
2016-Jan-22 23:33N 27°54' W 082°25'0 0.0
2016-Jan-22 22:33N 27°54' W 082°25'0 0.0
2016-Jan-22 21:33N 27°54' W 082°25'0 0.0
2016-Jan-22 20:33N 27°54' W 082°25'0 0.0
2016-Jan-22 19:33N 27°54' W 082°25'0 0.0
2016-Jan-22 18:33N 27°54' W 082°25'0 0.0
2016-Jan-22 17:33N 27°54' W 082°25'0 0.0
2016-Jan-22 16:33N 27°54' W 082°25'0 0.0
2016-Jan-22 15:33N 27°54' W 082°25'0 0.0
2016-Jan-22 14:33N 27°54' W 082°25'0 0.0
2016-Jan-22 13:33N 27°54' W 082°25'0 0.0
2016-Jan-22 12:33N 27°54' W 082°25'0 0.0
2016-Jan-22 11:33N 27°54' W 082°25'0 0.0
2016-Jan-22 10:33N 27°54' W 082°25'1 0.7
2016-Jan-22 09:33N 27°54' W 082°26'5 5.1
2016-Jan-22 08:33N 27°49' W 082°27'1111.5
2016-Jan-22 07:33N 27°41' W 082°35'1111.3
2016-Jan-22 06:33N 27°37' W 082°47'  
Track history (hours):
 
Tides and Currents Weather Stations Pressure Air Temp Water Temp Dewpoint Dewpoint Depression Visibility Wind Speed Wind Dir Waves Ship Positions

Marola

Last reported at 2016-Jan-31 20:32 UTC. Time now 2016-Feb-09 13:50 UTC.
Position N 10°55' W 061°16'.
Warning: this ship's position is 8 days out of date.

Length 180 m; draft 9 m.

Type: Ship. MMSI: 247094900.

Date/timePositionNaut miles runAvg speedWind from/ knotsBaromVisibWave heightAir tempDewpointWater temp
2016-Jan-31 20:32N 10°55' W 061°16'1413.5
2016-Jan-31 19:31N 10°52' W 061°29'1414.7
2016-Jan-31 18:34N 10°50' W 061°44'1313.2
2016-Jan-31 17:34N 10°38' W 061°49'1413.6
2016-Jan-31 16:34N 10°26' W 061°42'1212.0
2016-Jan-31 15:33N 10°23' W 061°30'1 0.5
2016-Jan-31 14:29N 10°23' W 061°30'0 0.0
2016-Jan-31 13:29N 10°23' W 061°30'0 0.0
2016-Jan-31 12:29N 10°23' W 061°30'0 0.0
2016-Jan-31 11:29N 10°23' W 061°30'0 0.0
2016-Jan-31 10:23N 10°23' W 061°30'0 0.0
2016-Jan-31 09:29N 10°23' W 061°30'0 0.0
2016-Jan-31 08:29N 10°23' W 061°30'0 0.0
2016-Jan-31 07:29N 10°23' W 061°30'0 0.0
2016-Jan-31 06:29N 10°23' W 061°30'0 0.0
2016-Jan-31 05:29N 10°23' W 061°30'0 0.0
2016-Jan-31 04:29N 10°23' W 061°30'0 0.0
2016-Jan-31 03:29N 10°23' W 061°30'0 0.0
2016-Jan-31 02:29N 10°23' W 061°30'0 0.0
2016-Jan-31 01:29N 10°23' W 061°30'0 0.0
2016-Jan-31 00:29N 10°23' W 061°30'0 0.0
2016-Jan-30 23:29N 10°23' W 061°30'0 0.0
2016-Jan-30 22:29N 10°23' W 061°30'0 0.0
2016-Jan-30 21:29N 10°23' W 061°30'0 0.0
2016-Jan-30 20:23N 10°23' W 061°30'0 0.0
2016-Jan-30 19:29N 10°23' W 061°30'0 0.0
2016-Jan-30 18:11N 10°23' W 061°30'0 0.0
2016-Jan-30 16:29N 10°23' W 061°30'0 0.0
2016-Jan-30 15:11N 10°23' W 061°30'0 0.0
2016-Jan-30 14:29N 10°23' W 061°30'0 0.0
2016-Jan-30 13:17N 10°23' W 061°30'0 0.0
2016-Jan-30 12:23N 10°23' W 061°30'0 0.0
2016-Jan-30 11:29N 10°23' W 061°30'1 1.0
2016-Jan-30 10:33N 10°23' W 061°31'2 2.5
2016-Jan-30 09:33N 10°23' W 061°33'0 0.0
2016-Jan-30 08:33N 10°23' W 061°33'0 0.0
2016-Jan-30 07:33N 10°23' W 061°33'0 0.0
2016-Jan-30 06:33N 10°23' W 061°33'0 0.0
2016-Jan-30 05:33N 10°23' W 061°33'0 0.0
2016-Jan-30 04:33N 10°23' W 061°33'0 0.0
2016-Jan-30 03:33N 10°23' W 061°33'0 0.0
2016-Jan-30 02:33N 10°23' W 061°33'0 0.0
2016-Jan-30 01:33N 10°23' W 061°33'0 0.1
2016-Jan-30 00:33N 10°23' W 061°33'7 6.8
2016-Jan-29 23:33N 10°24' W 061°40'1312.5
2016-Jan-29 22:33N 10°32' W 061°50'1414.3
2016-Jan-29 21:33N 10°47' W 061°50'1313.3
2016-Jan-29 20:33N 10°58' W 061°58'  
2016-Jan-24 20:29N 27°37' W 082°46'1213.0
2016-Jan-24 19:33N 27°41' W 082°34'1212.4
2016-Jan-24 18:33N 27°52' W 082°27'3 3.0
2016-Jan-24 17:32N 27°55' W 082°27'0 0.0
2016-Jan-24 16:32N 27°55' W 082°27'0 0.0
2016-Jan-24 15:32N 27°55' W 082°27'0 0.0
2016-Jan-24 14:32N 27°55' W 082°27'0 0.0
2016-Jan-24 13:32N 27°55' W 082°27'0 0.0
2016-Jan-24 12:32N 27°55' W 082°27'0 0.0
2016-Jan-24 11:32N 27°55' W 082°27'0 0.0
2016-Jan-24 10:32N 27°55' W 082°27'0 0.0
2016-Jan-24 09:32N 27°55' W 082°27'0 0.0
2016-Jan-24 08:32N 27°55' W 082°27'0 0.0
2016-Jan-24 07:32N 27°55' W 082°27'0 0.0
2016-Jan-24 06:32N 27°55' W 082°27'0 0.0
2016-Jan-24 05:32N 27°55' W 082°27'0 0.0
2016-Jan-24 04:32N 27°55' W 082°27'0 0.0
2016-Jan-24 03:32N 27°55' W 082°27'0 0.0
2016-Jan-24 02:32N 27°55' W 082°27'0 0.4
2016-Jan-24 01:33N 27°55' W 082°27'1 1.5
2016-Jan-24 00:33N 27°54' W 082°25'0 0.0
2016-Jan-23 23:33N 27°54' W 082°25'0 0.0
2016-Jan-23 22:33N 27°54' W 082°25'0 0.0
2016-Jan-23 21:33N 27°54' W 082°25'0 0.0
2016-Jan-23 20:33N 27°54' W 082°25'0 0.0
2016-Jan-23 19:33N 27°54' W 082°25'0 0.0
2016-Jan-23 18:33N 27°54' W 082°25'0 0.0
2016-Jan-23 17:33N 27°54' W 082°25'0 0.0
2016-Jan-23 16:33N 27°54' W 082°25'0 0.0
2016-Jan-23 15:33N 27°54' W 082°25'0 0.0
2016-Jan-23 14:33N 27°54' W 082°25'0 0.0
2016-Jan-23 13:33N 27°54' W 082°25'0 0.0
2016-Jan-23 12:33N 27°54' W 082°25'0 0.0
2016-Jan-23 11:33N 27°54' W 082°25'0 0.0
2016-Jan-23 10:33N 27°54' W 082°25'0 0.0
2016-Jan-23 09:33N 27°54' W 082°25'0 0.0
2016-Jan-23 08:33N 27°54' W 082°25'0 0.0
2016-Jan-23 07:33N 27°54' W 082°25'0 0.0
2016-Jan-23 06:33N 27°54' W 082°25'0 0.0
2016-Jan-23 05:33N 27°54' W 082°25'0 0.0
2016-Jan-23 04:33N 27°54' W 082°25'0 0.0
2016-Jan-23 03:33N 27°54' W 082°25'0 0.0
2016-Jan-23 02:33N 27°54' W 082°25'0 0.0
2016-Jan-23 01:33N 27°54' W 082°25'0 0.0
2016-Jan-23 00:33N 27°54' W 082°25'0 0.0
2016-Jan-22 23:33N 27°54' W 082°25'0 0.0
2016-Jan-22 22:33N 27°54' W 082°25'0 0.0
2016-Jan-22 21:33N 27°54' W 082°25'0 0.0
2016-Jan-22 20:33N 27°54' W 082°25'0 0.0
2016-Jan-22 19:33N 27°54' W 082°25'0 0.0
2016-Jan-22 18:33N 27°54' W 082°25'0 0.0
2016-Jan-22 17:33N 27°54' W 082°25'0 0.0
2016-Jan-22 16:33N 27°54' W 082°25'0 0.0
2016-Jan-22 15:33N 27°54' W 082°25'0 0.0
2016-Jan-22 14:33N 27°54' W 082°25'0 0.0
2016-Jan-22 13:33N 27°54' W 082°25'0 0.0
2016-Jan-22 12:33N 27°54' W 082°25'0 0.0
2016-Jan-22 11:33N 27°54' W 082°25'0 0.0
2016-Jan-22 10:33N 27°54' W 082°25'1 0.7
2016-Jan-22 09:33N 27°54' W 082°26'5 5.1
2016-Jan-22 08:33N 27°49' W 082°27'1111.5
2016-Jan-22 07:33N 27°41' W 082°35'1111.3
2016-Jan-22 06:33N 27°37' W 082°47'  

Dump ship's entire track history